createdAt,value
2022-09-01T00:00:51.598Z,89.50
2022-09-01T00:03:19.756Z,90.00
2022-09-01T00:05:46.403Z,90.00
2022-09-01T00:08:13.334Z,90.20
2022-09-01T00:10:45.238Z,90.20
2022-09-01T00:13:11.837Z,90.10
2022-09-01T00:15:38.608Z,90.30
2022-09-01T00:18:05.542Z,90.20
2022-09-01T00:20:32.309Z,90.00
2022-09-01T00:23:00.637Z,90.20
2022-09-01T00:25:27.992Z,90.70
2022-09-01T00:27:59.243Z,90.30
2022-09-01T00:30:26.403Z,90.50
2022-09-01T00:32:52.990Z,90.70
2022-09-01T00:35:19.805Z,90.70
2022-09-01T00:37:46.425Z,90.70
2022-09-01T00:40:14.330Z,90.70
2022-09-01T00:42:41.540Z,91.30
2022-09-01T00:45:08.945Z,91.50
2022-09-01T00:47:36.754Z,91.50
2022-09-01T00:50:07.296Z,91.30
2022-09-01T00:52:42.721Z,91.50
2022-09-01T00:55:12.054Z,91.80
2022-09-01T00:57:39.295Z,91.60
2022-09-01T01:00:14.353Z,92.00
2022-09-01T01:02:41.543Z,92.10
2022-09-01T01:05:08.717Z,92.40
2022-09-01T01:07:42.382Z,92.40
2022-09-01T01:10:15.870Z,92.50
2022-09-01T01:12:43.865Z,92.60
2022-09-01T01:15:13.700Z,92.80
2022-09-01T01:17:40.780Z,92.70
2022-09-01T01:20:27.105Z,92.70
2022-09-01T01:23:02.690Z,93.00
2022-09-01T01:25:32.084Z,92.90
2022-09-01T01:28:10.878Z,92.80
2022-09-01T01:30:39.707Z,93.10
2022-09-01T01:33:06.886Z,93.00
2022-09-01T01:35:35.407Z,92.80
2022-09-01T01:38:02.635Z,93.00
2022-09-01T01:40:29.746Z,93.00
2022-09-01T01:42:57.256Z,93.10
2022-09-01T01:45:24.663Z,92.80
2022-09-01T01:47:53.431Z,92.70
2022-09-01T01:50:21.830Z,93.30
2022-09-01T01:52:48.678Z,93.30
2022-09-01T01:55:23.568Z,93.10
2022-09-01T01:57:50.290Z,93.20
2022-09-01T02:00:19.543Z,93.10
2022-09-01T02:02:55.225Z,93.30
2022-09-01T02:05:24.966Z,93.10
2022-09-01T02:07:55.920Z,93.30
2022-09-01T02:10:27.331Z,93.60
2022-09-01T02:12:53.984Z,93.30
2022-09-01T02:15:20.663Z,93.20
2022-09-01T02:17:47.446Z,93.60
2022-09-01T02:20:16.057Z,93.50
2022-09-01T02:22:44.573Z,93.30
2022-09-01T02:25:12.390Z,93.00
2022-09-01T02:27:39.864Z,92.80
2022-09-01T02:30:10.921Z,93.20
2022-09-01T02:32:37.565Z,93.00
2022-09-01T02:35:07.323Z,93.10
2022-09-01T02:37:34.520Z,93.20
2022-09-01T02:40:02.126Z,93.00
2022-09-01T02:42:40.994Z,93.30
2022-09-01T02:45:11.992Z,93.20
2022-09-01T02:47:48.629Z,93.20
2022-09-01T02:50:17.222Z,93.20
2022-09-01T02:52:44.001Z,92.90
2022-09-01T02:55:11.798Z,93.00
2022-09-01T02:57:38.395Z,92.80
2022-09-01T03:00:20.589Z,92.60
2022-09-01T03:02:56.750Z,92.50
2022-09-01T03:05:27.070Z,92.50
2022-09-01T03:07:56.546Z,92.30
2022-09-01T03:10:27.095Z,92.10
2022-09-01T03:12:54.788Z,92.00
2022-09-01T03:15:22.618Z,92.00
2022-09-01T03:17:49.452Z,91.80
2022-09-01T03:20:26.479Z,91.70
2022-09-01T03:22:53.237Z,91.70
2022-09-01T03:25:20.060Z,91.70
2022-09-01T03:27:47.571Z,91.60
2022-09-01T03:30:14.438Z,91.50
2022-09-01T03:32:41.015Z,91.30
2022-09-01T03:35:08.714Z,91.30
2022-09-01T03:37:37.198Z,91.60
2022-09-01T03:40:05.328Z,91.50
2022-09-01T03:42:32.572Z,91.30
2022-09-01T03:44:59.233Z,91.20
2022-09-01T03:47:26.167Z,91.30
2022-09-01T03:49:55.571Z,91.30
2022-09-01T03:52:29.994Z,91.50
2022-09-01T03:54:59.500Z,91.50
2022-09-01T03:57:26.978Z,91.60
2022-09-01T04:00:00.161Z,91.40
2022-09-01T04:02:30.693Z,91.30
2022-09-01T04:04:59.273Z,91.30
2022-09-01T04:07:26.411Z,91.30
2022-09-01T04:09:53.020Z,91.40
2022-09-01T04:12:19.671Z,91.50
2022-09-01T04:14:48.463Z,91.70
2022-09-01T04:17:34.004Z,91.80
2022-09-01T04:20:08.569Z,92.00
2022-09-01T04:22:38.286Z,92.00
2022-09-01T04:25:05.651Z,92.40
2022-09-01T04:27:32.269Z,92.20
2022-09-01T04:30:00.179Z,92.10
2022-09-01T04:32:27.473Z,92.20
2022-09-01T04:34:54.061Z,92.30
2022-09-01T04:37:21.756Z,92.10
2022-09-01T04:39:56.045Z,92.10
2022-09-01T04:42:24.560Z,91.80
2022-09-01T04:44:53.532Z,91.90
2022-09-01T04:47:29.915Z,91.90
2022-09-01T04:50:04.356Z,91.80
2022-09-01T04:52:31.962Z,92.10
2022-09-01T04:54:58.733Z,92.20
2022-09-01T04:57:27.586Z,92.50
2022-09-01T04:59:56.771Z,92.80
2022-09-01T05:02:27.157Z,92.70
2022-09-01T05:04:54.218Z,92.60
2022-09-01T05:07:21.444Z,92.60
2022-09-01T05:09:48.094Z,92.60
2022-09-01T05:12:16.030Z,93.10
2022-09-01T05:14:44.079Z,93.20
2022-09-01T05:17:12.069Z,93.10
2022-09-01T05:19:40.876Z,93.50
2022-09-01T05:22:10.337Z,92.90
2022-09-01T05:24:41.386Z,92.90
2022-09-01T05:27:08.884Z,92.70
2022-09-01T05:29:37.959Z,93.20
2022-09-01T05:32:08.907Z,92.40
2022-09-01T05:34:37.519Z,92.20
2022-09-01T05:37:05.541Z,91.80
2022-09-01T05:39:32.705Z,91.20
2022-09-01T05:41:59.763Z,91.20
2022-09-01T05:44:26.362Z,90.30
2022-09-01T05:46:53.538Z,90.10
2022-09-01T05:49:20.437Z,90.30
2022-09-01T05:51:51.774Z,89.10
2022-09-01T05:54:21.454Z,87.60
2022-09-01T05:56:48.925Z,86.20
2022-09-01T05:59:24.490Z,84.30
2022-09-01T06:01:53.362Z,82.90
2022-09-01T06:04:20.432Z,81.40
2022-09-01T06:07:05.813Z,80.30
2022-09-01T06:09:40.687Z,79.40
2022-09-01T06:12:07.633Z,78.30
2022-09-01T06:14:34.337Z,78.10
2022-09-01T06:17:01.081Z,77.00
2022-09-01T06:19:29.090Z,76.60
2022-09-01T06:21:56.959Z,76.90
2022-09-01T06:24:23.586Z,77.00
2022-09-01T06:26:50.278Z,79.40
2022-09-01T06:29:17.014Z,79.00
2022-09-01T06:31:51.990Z,77.90
2022-09-01T06:34:19.783Z,77.70
2022-09-01T06:36:47.817Z,78.50
2022-09-01T06:39:19.728Z,78.20
2022-09-01T06:41:52.746Z,77.70
2022-09-01T06:44:22.393Z,77.50
2022-09-01T06:46:53.268Z,74.40
2022-09-01T06:49:21.510Z,72.00
2022-09-01T06:51:49.767Z,69.50
2022-09-01T06:54:19.067Z,69.40
2022-09-01T06:56:51.561Z,68.00
2022-09-01T06:59:19.973Z,70.70
2022-09-01T07:01:49.008Z,72.40
2022-09-01T07:04:21.646Z,74.60
2022-09-01T07:07:00.517Z,76.60
2022-09-01T07:09:47.244Z,77.10
2022-09-01T07:12:30.173Z,79.00
2022-09-01T07:17:49.978Z,78.80
2022-09-01T07:20:24.714Z,78.60
2022-09-01T07:23:08.144Z,77.50
2022-09-01T07:28:37.598Z,75.50
2022-09-01T07:33:55.794Z,76.40
2022-09-01T07:47:56.016Z,79.20
2022-09-01T07:51:34.197Z,79.60
2022-09-01T07:53:12.550Z,78.80
2022-09-01T07:55:44.072Z,80.20
2022-09-01T07:58:11.827Z,78.80
2022-09-01T08:00:39.894Z,77.80
2022-09-01T08:03:06.876Z,77.80
2022-09-01T08:05:33.922Z,77.50
2022-09-01T08:08:01.233Z,75.20
2022-09-01T08:10:27.912Z,72.70
2022-09-01T08:12:57.520Z,67.70
2022-09-01T08:16:06.492Z,65.90
2022-09-01T08:18:14.323Z,66.50
2022-09-01T08:20:45.450Z,65.70
2022-09-01T08:23:13.470Z,65.80
2022-09-01T08:25:42.660Z,68.00
2022-09-01T08:28:09.971Z,66.60
2022-09-01T08:30:38.230Z,63.90
2022-09-01T08:33:12.422Z,61.50
2022-09-01T08:35:42.795Z,60.00
2022-09-01T08:38:09.952Z,59.70
2022-09-01T08:40:36.785Z,57.80
2022-09-01T08:43:15.662Z,60.10
2022-09-01T08:45:45.471Z,62.50
2022-09-01T08:48:57.173Z,63.30
2022-09-01T08:51:15.105Z,63.40
2022-09-01T08:53:47.459Z,66.80
2022-09-01T08:56:15.399Z,66.80
2022-09-01T08:58:42.093Z,68.00
2022-09-01T09:01:17.649Z,69.80
2022-09-01T09:04:03.887Z,68.30
2022-09-01T09:06:40.143Z,64.70
2022-09-01T09:09:08.703Z,60.30
2022-09-01T09:11:58.920Z,53.70
2022-09-01T09:14:31.690Z,50.90
2022-09-01T09:16:58.710Z,50.40
2022-09-01T09:19:28.671Z,52.40
2022-09-01T09:21:57.000Z,53.20
2022-09-01T09:24:49.868Z,53.10
2022-09-01T09:27:21.371Z,55.20
2022-09-01T09:29:51.764Z,56.50
2022-09-01T09:32:35.229Z,59.20
2022-09-01T09:35:25.769Z,61.00
2022-09-01T09:37:54.358Z,62.40
2022-09-01T09:40:22.400Z,63.90
2022-09-01T09:42:55.189Z,66.30
2022-09-01T09:45:26.629Z,68.70
2022-09-01T09:47:54.529Z,68.70
2022-09-01T09:50:25.962Z,70.80
2022-09-01T09:52:55.872Z,71.80
2022-09-01T09:55:24.547Z,73.60
2022-09-01T09:57:53.094Z,74.40
2022-09-01T10:00:25.947Z,74.20
2022-09-01T10:02:58.502Z,76.50
2022-09-01T10:05:26.783Z,75.40
2022-09-01T10:07:55.895Z,74.90
2022-09-01T10:10:41.501Z,75.20
2022-09-01T10:13:10.634Z,73.70
2022-09-01T10:15:38.032Z,73.80
2022-09-01T10:18:29.094Z,74.40
2022-09-01T10:21:01.726Z,75.00
2022-09-01T10:23:31.009Z,74.10
2022-09-01T10:26:05.996Z,73.40
2022-09-01T10:28:33.989Z,70.10
2022-09-01T10:31:02.420Z,66.00
2022-09-01T10:33:30.279Z,64.30
2022-09-01T10:35:56.903Z,65.10
2022-09-01T10:38:28.178Z,64.20
2022-09-01T10:41:14.154Z,64.60
2022-09-01T10:43:41.603Z,65.20
2022-09-01T10:46:15.634Z,65.50
2022-09-01T10:48:48.829Z,65.80
2022-09-01T10:51:28.313Z,67.10
2022-09-01T10:54:04.040Z,69.00
2022-09-01T10:56:51.382Z,69.70
2022-09-01T10:59:33.670Z,70.70
2022-09-01T11:02:35.637Z,67.90
2022-09-01T11:05:00.776Z,59.60
2022-09-01T11:07:58.181Z,55.10
2022-09-01T11:10:33.659Z,54.00
2022-09-01T11:13:19.835Z,54.00
2022-09-01T11:15:47.062Z,55.50
2022-09-01T11:18:32.031Z,57.30
2022-09-01T11:21:15.047Z,55.40
2022-09-01T11:23:41.675Z,55.60
2022-09-01T11:26:28.679Z,54.60
2022-09-01T11:28:55.593Z,54.00
2022-09-01T11:31:28.499Z,52.40
2022-09-01T11:33:58.448Z,51.10
2022-09-01T11:36:37.708Z,50.30
2022-09-01T11:39:26.959Z,49.80
2022-09-01T11:42:04.446Z,50.20
2022-09-01T11:44:37.598Z,52.10
2022-09-01T11:47:09.486Z,52.20
2022-09-01T11:49:48.252Z,53.00
2022-09-01T11:52:16.051Z,51.10
2022-09-01T11:54:43.440Z,50.60
2022-09-01T11:57:21.135Z,51.50
2022-09-01T11:59:47.753Z,54.00
2022-09-01T12:02:19.070Z,55.30
2022-09-01T12:04:46.286Z,57.50
2022-09-01T12:07:27.227Z,57.70
2022-09-01T12:09:54.099Z,58.90
2022-09-01T12:12:31.882Z,57.70
2022-09-01T12:15:06.461Z,56.40
2022-09-01T12:17:34.674Z,55.40
2022-09-01T12:20:20.178Z,55.20
2022-09-01T12:22:47.204Z,57.00
2022-09-01T12:25:25.675Z,56.00
2022-09-01T12:27:53.315Z,56.70
2022-09-01T12:30:20.423Z,54.90
2022-09-01T12:32:47.702Z,55.60
2022-09-01T12:35:22.078Z,55.10
2022-09-01T12:37:48.803Z,56.30
2022-09-01T12:40:23.736Z,57.10
2022-09-01T12:42:51.772Z,56.20
2022-09-01T12:45:36.598Z,57.00
2022-09-01T12:48:03.342Z,58.30
2022-09-01T12:50:30.096Z,56.90
2022-09-01T12:52:58.763Z,53.00
2022-09-01T12:58:21.535Z,48.90
2022-09-01T13:01:00.536Z,50.80
2022-09-01T13:03:30.208Z,50.20
2022-09-01T13:05:59.369Z,45.00
2022-09-01T13:08:28.528Z,44.60
2022-09-01T13:11:01.818Z,41.30
2022-09-01T13:13:28.804Z,41.70
2022-09-01T13:15:57.546Z,43.00
2022-09-01T13:18:24.882Z,43.20
2022-09-01T13:20:53.045Z,45.10
2022-09-01T13:23:20.519Z,46.80
2022-09-01T13:25:47.598Z,47.90
2022-09-01T13:28:14.960Z,48.80
2022-09-01T13:30:42.978Z,51.00
2022-09-01T13:33:20.480Z,48.30
2022-09-01T13:35:48.251Z,47.30
2022-09-01T13:38:16.650Z,46.30
2022-09-01T13:40:45.522Z,45.30
2022-09-01T13:43:13.004Z,46.60
2022-09-01T13:45:41.877Z,43.80
2022-09-01T13:48:16.978Z,43.60
2022-09-01T13:53:31.929Z,44.20
2022-09-01T13:55:58.609Z,45.70
2022-09-01T13:58:25.249Z,46.30
2022-09-01T14:00:52.148Z,45.00
2022-09-01T14:03:20.857Z,45.70
2022-09-01T14:05:48.534Z,45.80
2022-09-01T14:08:19.228Z,45.30
2022-09-01T14:10:48.823Z,46.10
2022-09-01T14:13:15.815Z,45.60
2022-09-01T14:15:44.108Z,44.90
2022-09-01T14:18:10.679Z,44.70
2022-09-01T14:20:39.567Z,44.90
2022-09-01T14:23:06.995Z,45.50
2022-09-01T14:25:33.998Z,44.80
2022-09-01T14:28:01.961Z,46.30
2022-09-01T14:30:31.741Z,48.60
2022-09-01T14:33:02.152Z,48.70
2022-09-01T14:35:30.734Z,47.50
2022-09-01T14:37:59.015Z,49.30
2022-09-01T14:40:26.120Z,51.30
2022-09-01T14:42:53.202Z,49.00
2022-09-01T14:45:21.326Z,49.10
2022-09-01T14:47:48.844Z,48.60
2022-09-01T14:50:19.943Z,49.30
2022-09-01T14:52:50.322Z,48.80
2022-09-01T14:55:17.193Z,50.00
2022-09-01T14:57:43.827Z,48.80
2022-09-01T15:00:12.295Z,49.60
2022-09-01T15:02:39.999Z,50.90
2022-09-01T15:05:07.133Z,50.50
2022-09-01T15:07:33.982Z,53.20
2022-09-01T15:10:00.721Z,51.50
2022-09-01T15:12:30.952Z,51.00
2022-09-01T15:14:58.940Z,52.00
2022-09-01T15:17:25.978Z,51.90
2022-09-01T15:19:52.694Z,52.60
2022-09-01T15:22:19.541Z,54.50
2022-09-01T15:24:46.779Z,52.20
2022-09-01T15:27:13.368Z,53.70
2022-09-01T15:29:45.614Z,51.10
2022-09-01T15:32:17.040Z,51.30
2022-09-01T15:34:53.995Z,51.20
2022-09-01T15:37:20.637Z,52.70
2022-09-01T15:39:47.220Z,52.00
2022-09-01T15:44:43.721Z,53.30
2022-09-01T15:47:10.461Z,52.80
2022-09-01T15:49:37.179Z,53.10
2022-09-01T15:52:03.787Z,52.80
2022-09-01T15:54:30.818Z,54.10
2022-09-01T15:56:57.520Z,55.50
2022-09-01T15:59:24.155Z,52.60
2022-09-01T16:01:53.091Z,55.20
2022-09-01T16:04:22.988Z,54.40
2022-09-01T16:06:55.965Z,53.90
2022-09-01T16:09:22.735Z,53.50
2022-09-01T16:11:49.805Z,54.20
2022-09-01T16:14:16.431Z,54.60
2022-09-01T16:16:52.653Z,54.30
2022-09-01T16:19:22.665Z,55.00
2022-09-01T16:21:54.155Z,54.60
2022-09-01T16:24:21.177Z,54.20
2022-09-01T16:26:48.269Z,54.90
2022-09-01T16:29:20.708Z,54.50
2022-09-01T16:31:51.334Z,55.00
2022-09-01T16:34:26.235Z,55.10
2022-09-01T16:37:08.809Z,56.00
2022-09-01T16:39:48.519Z,55.90
2022-09-01T16:42:46.869Z,58.80
2022-09-01T16:45:18.312Z,59.70
2022-09-01T16:47:52.317Z,57.00
2022-09-01T16:50:18.986Z,57.00
2022-09-01T16:53:04.279Z,60.20
2022-09-01T16:55:33.781Z,61.10
2022-09-01T16:58:00.321Z,60.90
2022-09-01T17:00:32.787Z,62.00
2022-09-01T17:03:07.999Z,62.30
2022-09-01T17:05:43.498Z,63.50
2022-09-01T17:08:16.696Z,64.30
2022-09-01T17:10:43.352Z,64.60
2022-09-01T17:13:17.170Z,65.30
2022-09-01T17:15:48.040Z,65.70
2022-09-01T17:18:22.206Z,65.00
2022-09-01T17:20:58.119Z,65.50
2022-09-01T17:23:30.812Z,66.10
2022-09-01T17:26:03.081Z,67.00
2022-09-01T17:28:43.883Z,64.80
2022-09-01T17:31:15.891Z,63.20
2022-09-01T17:34:08.683Z,63.00
2022-09-01T17:36:52.473Z,62.10
2022-09-01T17:39:36.983Z,63.90
2022-09-01T17:42:07.415Z,63.40
2022-09-01T17:44:56.391Z,63.40
2022-09-01T17:47:32.229Z,63.90
2022-09-01T17:50:02.795Z,62.10
2022-09-01T17:52:32.636Z,61.90
2022-09-01T17:55:19.643Z,64.50
2022-09-01T17:58:03.387Z,61.50
2022-09-01T18:00:55.735Z,61.80
2022-09-01T18:03:28.607Z,64.30
2022-09-01T18:05:59.399Z,63.70
2022-09-01T18:08:37.680Z,63.70
2022-09-01T18:11:12.683Z,65.40
2022-09-01T18:13:53.795Z,67.30
2022-09-01T18:16:31.368Z,67.70
2022-09-01T18:19:02.426Z,69.10
2022-09-01T18:21:46.259Z,70.00
2022-09-01T18:24:21.572Z,69.70
2022-09-01T18:26:49.653Z,70.50
2022-09-01T18:29:17.055Z,71.10
2022-09-01T18:31:56.114Z,71.60
2022-09-01T18:34:34.920Z,72.90
2022-09-01T18:37:07.860Z,73.50
2022-09-01T18:39:40.416Z,73.40
2022-09-01T18:42:10.433Z,74.10
2022-09-01T18:44:54.203Z,73.70
2022-09-01T18:47:31.750Z,74.80
2022-09-01T18:50:04.447Z,75.70
2022-09-01T18:52:44.262Z,75.50
2022-09-01T18:55:21.071Z,75.50
2022-09-01T18:57:51.401Z,75.80
2022-09-01T19:00:25.669Z,76.10
2022-09-01T19:03:04.630Z,76.80
2022-09-01T19:05:34.423Z,76.70
2022-09-01T19:08:23.929Z,77.60
2022-09-01T19:11:09.052Z,77.40
2022-09-01T19:13:55.875Z,78.30
2022-09-01T19:16:42.963Z,78.10
2022-09-01T19:19:27.703Z,79.10
2022-09-01T19:21:56.023Z,79.70
2022-09-01T19:24:27.997Z,78.30
2022-09-01T19:26:59.329Z,78.80
2022-09-01T19:29:36.248Z,79.30
2022-09-01T19:32:06.768Z,79.60
2022-09-01T19:34:39.377Z,79.20
2022-09-01T19:37:06.212Z,80.20
2022-09-01T19:39:38.067Z,79.80
2022-09-01T19:42:23.629Z,80.80
2022-09-01T19:44:53.285Z,80.80
2022-09-01T19:47:19.848Z,81.30
2022-09-01T19:49:51.283Z,81.50
2022-09-01T19:52:23.565Z,81.00
2022-09-01T19:54:51.897Z,82.30
2022-09-01T19:57:37.078Z,81.80
2022-09-01T20:00:10.057Z,81.20
2022-09-01T20:02:40.662Z,82.80
2022-09-01T20:05:26.288Z,82.50
2022-09-01T20:07:55.163Z,83.00
2022-09-01T20:10:27.008Z,82.20
2022-09-01T20:12:56.723Z,82.90
2022-09-01T20:15:24.435Z,81.80
2022-09-01T20:17:55.656Z,82.60
2022-09-01T20:20:23.689Z,81.90
2022-09-01T20:22:51.221Z,81.20
2022-09-01T20:25:20.690Z,80.70
2022-09-01T20:27:52.042Z,80.90
2022-09-01T20:30:20.875Z,82.10
2022-09-01T20:32:51.189Z,80.80
2022-09-01T20:35:20.706Z,80.50
2022-09-01T20:37:55.424Z,79.90
2022-09-01T20:40:27.098Z,80.80
2022-09-01T20:42:59.719Z,80.30
2022-09-01T20:45:27.518Z,81.50
2022-09-01T20:48:02.102Z,80.40
2022-09-01T20:50:31.795Z,80.20
2022-09-01T20:53:17.447Z,79.90
2022-09-01T20:55:49.277Z,79.50
2022-09-01T20:58:24.576Z,80.60
2022-09-01T21:01:15.383Z,80.60
2022-09-01T21:03:54.473Z,81.40
2022-09-01T21:06:39.773Z,79.90
2022-09-01T21:09:15.653Z,79.90
2022-09-01T21:11:48.119Z,79.80
2022-09-01T21:14:31.636Z,81.40
2022-09-01T21:17:01.433Z,82.20
2022-09-01T21:19:34.430Z,81.50
2022-09-01T21:22:11.914Z,82.50
2022-09-01T21:24:39.027Z,82.40
2022-09-01T21:27:08.038Z,82.60
2022-09-01T21:29:43.637Z,82.00
2022-09-01T21:32:10.758Z,82.70
2022-09-01T21:34:37.496Z,82.80
2022-09-01T21:37:04.279Z,83.00
2022-09-01T21:39:31.027Z,83.90
2022-09-01T21:41:57.644Z,84.10
2022-09-01T21:44:25.457Z,83.50
2022-09-01T21:46:52.330Z,84.20
2022-09-01T21:49:19.107Z,83.90
2022-09-01T21:51:45.873Z,84.00
2022-09-01T21:54:14.906Z,83.00
2022-09-01T21:56:41.674Z,83.30
2022-09-01T21:59:11.404Z,83.80
2022-09-01T22:01:38.092Z,84.70
2022-09-01T22:04:05.596Z,83.80
2022-09-01T22:06:32.909Z,85.00
2022-09-01T22:09:01.083Z,84.40
2022-09-01T22:11:29.034Z,84.60
2022-09-01T22:13:59.209Z,84.10
2022-09-01T22:16:25.817Z,85.20
2022-09-01T22:18:52.501Z,85.10
2022-09-01T22:21:19.901Z,84.70
2022-09-01T22:23:46.570Z,85.70
2022-09-01T22:26:23.553Z,85.60
2022-09-01T22:28:50.372Z,85.40
2022-09-01T22:31:19.144Z,86.00
2022-09-01T22:33:46.302Z,85.70
2022-09-01T22:36:19.346Z,86.60
2022-09-01T22:38:45.940Z,86.80
2022-09-01T22:41:16.447Z,86.40
2022-09-01T22:43:43.104Z,87.30
2022-09-01T22:46:09.791Z,86.20
2022-09-01T22:48:36.411Z,86.50
2022-09-01T22:51:08.311Z,86.50
2022-09-01T22:53:35.461Z,86.50
2022-09-01T22:56:02.373Z,87.00
2022-09-01T22:58:29.141Z,87.20
2022-09-01T23:00:56.568Z,86.60
2022-09-01T23:03:23.587Z,87.00
2022-09-01T23:05:50.639Z,86.00
2022-09-01T23:08:17.308Z,86.70
2022-09-01T23:10:43.913Z,86.30
2022-09-01T23:13:10.618Z,85.80
2022-09-01T23:15:37.767Z,86.00
2022-09-01T23:18:04.421Z,90.30
2022-09-01T23:20:31.230Z,86.00
2022-09-01T23:22:57.859Z,84.70
2022-09-01T23:25:24.755Z,88.80
2022-09-01T23:27:51.381Z,86.00
2022-09-01T23:30:19.141Z,87.30
2022-09-01T23:32:46.042Z,86.60
2022-09-01T23:35:12.899Z,86.40
2022-09-01T23:37:40.642Z,86.70
2022-09-01T23:40:08.094Z,87.50
2022-09-01T23:42:35.059Z,87.30
2022-09-01T23:45:01.706Z,87.70
2022-09-01T23:47:28.331Z,88.10
2022-09-01T23:49:56.830Z,88.50
2022-09-01T23:52:23.452Z,88.90
2022-09-01T23:54:50.030Z,88.60
2022-09-01T23:57:16.662Z,89.00
2022-09-01T23:59:43.379Z,88.10
